createdAt,value
2023-05-10T00:00:06.309Z,245.30
2023-05-10T00:01:06.359Z,244.15
2023-05-10T00:02:06.352Z,245.04
2023-05-10T00:03:06.516Z,245.47
2023-05-10T00:04:06.411Z,245.72
2023-05-10T00:05:06.483Z,244.34
2023-05-10T00:06:06.460Z,246.43
2023-05-10T00:07:06.470Z,246.45
2023-05-10T00:08:06.540Z,245.33
2023-05-10T00:09:06.500Z,244.42
2023-05-10T00:10:06.497Z,245.94
2023-05-10T00:11:06.535Z,245.52
2023-05-10T00:12:06.518Z,245.31
2023-05-10T00:13:06.594Z,245.60
2023-05-10T00:14:06.561Z,245.64
2023-05-10T00:15:06.562Z,246.57
2023-05-10T00:16:06.657Z,244.67
2023-05-10T00:17:06.617Z,245.42
2023-05-10T00:18:06.671Z,246.53
2023-05-10T00:19:06.654Z,246.17
2023-05-10T00:20:06.696Z,246.87
2023-05-10T00:21:06.675Z,246.17
2023-05-10T00:22:06.691Z,246.85
2023-05-10T00:23:06.724Z,246.08
2023-05-10T00:24:06.740Z,245.69
2023-05-10T00:25:06.735Z,245.70
2023-05-10T00:26:06.738Z,246.55
2023-05-10T00:27:06.751Z,245.56
2023-05-10T00:28:06.757Z,246.62
2023-05-10T00:29:06.756Z,246.78
2023-05-10T00:30:06.763Z,248.79
2023-05-10T00:31:06.790Z,247.53
2023-05-10T00:32:06.854Z,247.46
2023-05-10T00:33:06.842Z,247.49
2023-05-10T00:34:06.809Z,248.05
2023-05-10T00:35:06.839Z,247.21
2023-05-10T00:36:06.834Z,247.56
2023-05-10T00:37:06.820Z,247.52
2023-05-10T00:38:06.809Z,247.04
2023-05-10T00:39:06.840Z,246.63
2023-05-10T00:40:06.836Z,248.79
2023-05-10T00:41:06.844Z,247.93
2023-05-10T00:42:06.824Z,249.23
2023-05-10T00:43:06.818Z,248.08
2023-05-10T00:44:06.849Z,247.24
2023-05-10T00:45:06.828Z,246.07
2023-05-10T00:46:06.884Z,248.27
2023-05-10T00:47:06.843Z,248.20
2023-05-10T00:48:06.911Z,249.81
2023-05-10T00:49:06.855Z,245.58
2023-05-10T00:50:06.832Z,246.39
2023-05-10T00:51:06.837Z,247.32
2023-05-10T00:52:06.846Z,248.46
2023-05-10T00:53:06.880Z,248.71
2023-05-10T00:54:06.885Z,247.13
2023-05-10T00:55:06.859Z,246.02
2023-05-10T00:56:06.911Z,245.10
2023-05-10T00:57:06.849Z,245.93
2023-05-10T00:58:06.872Z,245.58
2023-05-10T00:59:06.861Z,246.08
2023-05-10T01:00:06.877Z,246.20
2023-05-10T01:01:06.924Z,242.88
2023-05-10T01:02:06.904Z,242.97
2023-05-10T01:03:07.057Z,244.64
2023-05-10T01:04:06.870Z,243.89
2023-05-10T01:05:06.904Z,245.58
2023-05-10T01:06:06.859Z,243.36
2023-05-10T01:07:06.912Z,244.14
2023-05-10T01:08:06.901Z,246.11
2023-05-10T01:09:06.904Z,245.58
2023-05-10T01:10:06.935Z,245.65
2023-05-10T01:11:06.902Z,246.35
2023-05-10T01:12:06.928Z,245.03
2023-05-10T01:13:06.934Z,245.68
2023-05-10T01:14:06.927Z,245.94
2023-05-10T01:15:06.985Z,247.22
2023-05-10T01:16:06.939Z,247.18
2023-05-10T01:17:06.942Z,245.19
2023-05-10T01:18:06.927Z,247.13
2023-05-10T01:19:06.941Z,248.07
2023-05-10T01:20:06.950Z,248.01
2023-05-10T01:21:06.954Z,246.46
2023-05-10T01:22:06.946Z,247.58
2023-05-10T01:23:06.983Z,246.75
2023-05-10T01:24:07.007Z,245.21
2023-05-10T01:25:07.009Z,247.24
2023-05-10T01:26:07.035Z,246.97
2023-05-10T01:27:07.080Z,249.54
2023-05-10T01:28:07.110Z,248.03
2023-05-10T01:29:07.100Z,247.64
2023-05-10T01:30:15.467Z,246.08
2023-05-10T01:31:08.154Z,246.24
2023-05-10T01:32:07.124Z,246.67
2023-05-10T01:33:07.162Z,246.85
2023-05-10T01:34:07.091Z,247.69
2023-05-10T01:35:07.092Z,249.10
2023-05-10T01:36:07.080Z,248.19
2023-05-10T01:37:07.099Z,248.58
2023-05-10T01:38:07.107Z,249.57
2023-05-10T01:39:07.057Z,248.79
2023-05-10T01:40:07.032Z,249.17
2023-05-10T01:41:07.036Z,249.82
2023-05-10T01:42:07.037Z,247.94
2023-05-10T01:43:07.050Z,248.45
2023-05-10T01:44:07.024Z,247.67
2023-05-10T01:45:07.025Z,249.47
2023-05-10T01:46:07.006Z,247.99
2023-05-10T01:47:06.968Z,248.86
2023-05-10T01:48:07.107Z,250.00
2023-05-10T01:49:07.016Z,249.13
2023-05-10T01:50:06.990Z,247.59
2023-05-10T01:51:06.989Z,250.00
2023-05-10T01:52:06.943Z,246.42
2023-05-10T01:53:06.960Z,249.87
2023-05-10T01:54:06.953Z,247.79
2023-05-10T01:55:06.919Z,248.31
2023-05-10T01:56:06.937Z,249.81
2023-05-10T01:57:06.931Z,247.76
2023-05-10T01:58:06.916Z,247.73
2023-05-10T01:59:06.926Z,246.82
2023-05-10T02:00:06.891Z,248.48
2023-05-10T02:01:06.956Z,248.75
2023-05-10T02:02:06.934Z,246.08
2023-05-10T02:03:06.965Z,246.20
2023-05-10T02:04:06.981Z,246.73
2023-05-10T02:05:06.924Z,246.93
2023-05-10T02:06:06.986Z,246.54
2023-05-10T02:07:06.989Z,247.06
2023-05-10T02:08:06.991Z,248.39
2023-05-10T02:09:06.979Z,247.72
2023-05-10T02:10:07.033Z,247.18
2023-05-10T02:11:07.039Z,246.73
2023-05-10T02:12:07.037Z,246.85
2023-05-10T02:13:07.120Z,247.58
2023-05-10T02:14:07.056Z,245.95
2023-05-10T02:15:07.059Z,248.21
2023-05-10T02:16:07.121Z,246.96
2023-05-10T02:17:07.086Z,247.98
2023-05-10T02:18:07.272Z,246.08
2023-05-10T02:19:07.120Z,248.29
2023-05-10T02:20:07.131Z,247.18
2023-05-10T02:21:07.106Z,247.84
2023-05-10T02:22:07.107Z,248.53
2023-05-10T02:23:07.154Z,248.52
2023-05-10T02:24:07.127Z,247.80
2023-05-10T02:25:07.157Z,248.04
2023-05-10T02:26:07.189Z,249.14
2023-05-10T02:27:07.226Z,247.76
2023-05-10T02:28:07.223Z,246.55
2023-05-10T02:29:07.191Z,247.25
2023-05-10T02:30:07.223Z,248.47
2023-05-10T02:31:07.254Z,248.84
2023-05-10T02:32:07.338Z,246.22
2023-05-10T02:33:07.379Z,247.47
2023-05-10T02:34:07.310Z,248.00
2023-05-10T02:35:07.327Z,248.86
2023-05-10T02:36:07.632Z,249.28
2023-05-10T02:37:07.324Z,247.75
2023-05-10T02:38:07.350Z,247.76
2023-05-10T02:39:07.346Z,247.61
2023-05-10T02:40:07.374Z,249.34
2023-05-10T02:41:07.408Z,246.79
2023-05-10T02:42:07.393Z,245.45
2023-05-10T02:43:07.389Z,249.65
2023-05-10T02:44:07.403Z,249.34
2023-05-10T02:45:07.456Z,247.85
2023-05-10T02:46:07.486Z,249.35
2023-05-10T02:47:07.495Z,249.98
2023-05-10T02:48:07.542Z,247.61
2023-05-10T02:49:07.501Z,247.23
2023-05-10T02:50:07.546Z,246.61
2023-05-10T02:51:07.556Z,248.75
2023-05-10T02:52:07.565Z,248.03
2023-05-10T02:53:07.596Z,248.27
2023-05-10T02:54:07.597Z,246.78
2023-05-10T02:55:07.601Z,247.23
2023-05-10T02:56:07.667Z,248.40
2023-05-10T02:57:07.628Z,248.64
2023-05-10T02:58:07.680Z,248.16
2023-05-10T02:59:07.672Z,247.51
2023-05-10T03:00:07.702Z,246.64
2023-05-10T03:01:07.738Z,247.68
2023-05-10T03:02:07.730Z,247.68
2023-05-10T03:03:07.793Z,246.64
2023-05-10T03:04:07.775Z,247.40
2023-05-10T03:05:07.813Z,246.96
2023-05-10T03:06:07.819Z,247.05
2023-05-10T03:07:07.788Z,246.53
2023-05-10T03:08:07.821Z,247.53
2023-05-10T03:09:07.906Z,249.67
2023-05-10T03:10:07.919Z,245.06
2023-05-10T03:11:07.914Z,246.86
2023-05-10T03:12:07.964Z,247.55
2023-05-10T03:13:08.036Z,246.50
2023-05-10T03:14:08.001Z,246.64
2023-05-10T03:15:08.019Z,246.37
2023-05-10T03:16:08.130Z,246.69
2023-05-10T03:17:08.082Z,247.29
2023-05-10T03:18:08.116Z,245.82
2023-05-10T03:19:08.147Z,247.59
2023-05-10T03:20:08.171Z,249.21
2023-05-10T03:21:08.155Z,247.91
2023-05-10T03:22:08.191Z,247.77
2023-05-10T03:23:08.196Z,248.95
2023-05-10T03:24:08.202Z,246.91
2023-05-10T03:25:08.274Z,248.71
2023-05-10T03:26:08.249Z,248.14
2023-05-10T03:27:08.301Z,248.92
2023-05-10T03:28:08.341Z,249.29
2023-05-10T03:29:08.411Z,248.41
2023-05-10T03:30:08.368Z,248.26
2023-05-10T03:31:08.435Z,248.07
2023-05-10T03:32:08.398Z,248.33
2023-05-10T03:33:08.419Z,248.41
2023-05-10T03:34:08.489Z,248.95
2023-05-10T03:35:08.482Z,250.00
2023-05-10T03:36:08.461Z,248.57
2023-05-10T03:37:08.509Z,247.97
2023-05-10T03:38:08.514Z,244.98
2023-05-10T03:39:08.577Z,246.78
2023-05-10T03:40:08.602Z,248.18
2023-05-10T03:41:08.632Z,248.35
2023-05-10T03:42:08.613Z,248.73
2023-05-10T03:43:08.658Z,247.14
2023-05-10T03:44:08.645Z,248.46
2023-05-10T03:45:08.708Z,248.64
2023-05-10T03:46:08.745Z,247.81
2023-05-10T03:47:09.062Z,249.89
2023-05-10T03:48:08.790Z,247.11
2023-05-10T03:49:08.754Z,248.80
2023-05-10T03:50:08.806Z,249.03
2023-05-10T03:51:08.803Z,248.42
2023-05-10T03:52:08.844Z,248.50
2023-05-10T03:53:08.888Z,248.31
2023-05-10T03:54:08.862Z,248.69
2023-05-10T03:55:08.918Z,247.88
2023-05-10T03:56:08.945Z,247.39
2023-05-10T03:57:08.946Z,249.29
2023-05-10T03:58:08.953Z,248.79
2023-05-10T03:59:08.995Z,249.20
2023-05-10T04:00:08.998Z,248.00
2023-05-10T04:01:09.111Z,246.10
2023-05-10T04:02:09.130Z,245.68
2023-05-10T04:03:09.154Z,245.92
2023-05-10T04:04:09.110Z,246.82
2023-05-10T04:05:09.100Z,243.69
2023-05-10T04:06:09.193Z,238.70
2023-05-10T04:07:09.185Z,234.92
2023-05-10T04:08:09.238Z,231.99
2023-05-10T04:09:09.200Z,228.66
2023-05-10T04:10:09.206Z,228.10
2023-05-10T04:11:09.250Z,223.84
2023-05-10T04:12:10.864Z,221.44
2023-05-10T04:13:09.344Z,221.03
2023-05-10T04:14:09.326Z,218.71
2023-05-10T04:15:09.376Z,217.50
2023-05-10T04:16:09.448Z,215.07
2023-05-10T04:17:09.536Z,213.47
2023-05-10T04:18:09.566Z,210.34
2023-05-10T04:19:09.652Z,209.47
2023-05-10T04:20:09.654Z,210.08
2023-05-10T04:21:09.741Z,209.67
2023-05-10T04:22:09.760Z,209.89
2023-05-10T04:23:09.799Z,203.92
2023-05-10T04:24:09.883Z,206.32
2023-05-10T04:25:09.912Z,206.64
2023-05-10T04:26:09.968Z,205.91
2023-05-10T04:27:10.046Z,205.00
2023-05-10T04:28:10.098Z,203.33
2023-05-10T04:29:10.097Z,201.09
2023-05-10T04:30:10.164Z,201.02
2023-05-10T04:31:10.219Z,198.78
2023-05-10T04:32:10.321Z,191.63
2023-05-10T04:33:10.315Z,192.31
2023-05-10T04:34:10.388Z,194.02
2023-05-10T04:35:10.444Z,191.94
2023-05-10T04:36:10.514Z,193.74
2023-05-10T04:37:10.655Z,194.90
2023-05-10T04:38:10.662Z,193.50
2023-05-10T04:39:10.667Z,198.68
2023-05-10T04:40:10.722Z,197.08
2023-05-10T04:41:10.795Z,199.79
2023-05-10T04:42:10.850Z,200.32
2023-05-10T04:43:10.901Z,202.34
2023-05-10T04:44:10.973Z,204.88
2023-05-10T04:45:11.003Z,204.35
2023-05-10T04:46:11.107Z,205.31
2023-05-10T04:47:12.777Z,204.21
2023-05-10T04:48:11.181Z,205.11
2023-05-10T04:49:11.201Z,207.78
2023-05-10T04:50:11.297Z,208.28
2023-05-10T04:51:11.321Z,209.57
2023-05-10T04:52:11.406Z,207.64
2023-05-10T04:53:11.431Z,210.69
2023-05-10T04:54:11.552Z,209.44
2023-05-10T04:55:11.602Z,209.63
2023-05-10T04:56:11.633Z,211.81
2023-05-10T04:57:11.669Z,210.21
2023-05-10T04:58:11.722Z,213.06
2023-05-10T04:59:11.792Z,216.03
2023-05-10T05:00:11.838Z,215.43
2023-05-10T05:01:11.925Z,216.14
2023-05-10T05:02:11.934Z,215.69
2023-05-10T05:03:12.096Z,215.38
2023-05-10T05:04:12.076Z,212.94
2023-05-10T05:05:12.075Z,215.71
2023-05-10T05:06:12.127Z,217.15
2023-05-10T05:07:12.172Z,217.63
2023-05-10T05:08:12.221Z,217.45
2023-05-10T05:09:12.298Z,218.07
2023-05-10T05:10:12.315Z,219.71
2023-05-10T05:11:12.375Z,216.65
2023-05-10T05:12:12.438Z,216.86
2023-05-10T05:13:12.575Z,217.71
2023-05-10T05:14:12.531Z,219.67
2023-05-10T05:15:12.555Z,219.19
2023-05-10T05:16:12.688Z,219.27
2023-05-10T05:17:12.631Z,218.33
2023-05-10T05:18:12.732Z,217.36
2023-05-10T05:19:12.757Z,219.46
2023-05-10T05:20:12.759Z,218.54
2023-05-10T05:21:12.808Z,220.08
2023-05-10T05:22:12.854Z,218.90
2023-05-10T05:23:12.864Z,220.49
2023-05-10T05:24:12.922Z,219.28
2023-05-10T05:25:13.001Z,218.35
2023-05-10T05:26:13.012Z,219.35
2023-05-10T05:27:13.022Z,218.43
2023-05-10T05:28:13.060Z,219.80
2023-05-10T05:29:13.120Z,218.32
2023-05-10T05:30:13.167Z,218.30
2023-05-10T05:31:13.230Z,217.61
2023-05-10T05:32:13.395Z,220.51
2023-05-10T05:33:13.328Z,218.08
2023-05-10T05:34:13.358Z,218.09
2023-05-10T05:35:13.408Z,212.23
2023-05-10T05:36:13.424Z,215.61
2023-05-10T05:37:13.470Z,215.90
2023-05-10T05:38:13.521Z,215.22
2023-05-10T05:39:13.600Z,215.82
2023-05-10T05:40:13.675Z,215.23
2023-05-10T05:41:13.654Z,217.55
2023-05-10T05:42:13.712Z,214.63
2023-05-10T05:43:13.764Z,218.17
2023-05-10T05:44:13.753Z,216.23
2023-05-10T05:45:13.967Z,216.08
2023-05-10T05:46:13.840Z,216.07
2023-05-10T05:47:13.851Z,218.37
2023-05-10T05:48:13.843Z,217.39
2023-05-10T05:49:13.911Z,219.91
2023-05-10T05:50:13.950Z,218.48
2023-05-10T05:51:13.979Z,220.98
2023-05-10T05:52:13.985Z,223.85
2023-05-10T05:53:13.996Z,225.34
2023-05-10T05:54:14.006Z,226.73
2023-05-10T05:55:14.115Z,225.24
2023-05-10T05:56:14.045Z,223.30
2023-05-10T05:57:14.065Z,223.42
2023-05-10T05:58:14.061Z,221.57
2023-05-10T05:59:14.070Z,222.46
2023-05-10T06:00:14.099Z,218.63
2023-05-10T06:01:14.104Z,219.64
2023-05-10T06:02:14.169Z,219.82
2023-05-10T06:03:14.227Z,216.68
2023-05-10T06:04:14.155Z,216.50
2023-05-10T06:05:14.441Z,217.44
2023-05-10T06:06:14.145Z,212.31
2023-05-10T06:07:14.155Z,214.50
2023-05-10T06:08:14.139Z,213.44
2023-05-10T06:09:14.210Z,212.23
2023-05-10T06:10:14.164Z,211.85
2023-05-10T06:11:14.244Z,211.82
2023-05-10T06:12:14.192Z,209.24
2023-05-10T06:13:14.212Z,209.07
2023-05-10T06:14:14.174Z,211.64
2023-05-10T06:15:14.336Z,213.02
2023-05-10T06:16:14.253Z,214.73
2023-05-10T06:17:14.180Z,213.37
2023-05-10T06:18:14.237Z,215.79
2023-05-10T06:19:14.175Z,215.73
2023-05-10T06:20:14.212Z,214.43
2023-05-10T06:21:14.159Z,215.65
2023-05-10T06:22:14.183Z,214.47
2023-05-10T06:23:14.156Z,217.50
2023-05-10T06:24:14.170Z,217.54
2023-05-10T06:25:14.323Z,214.03
2023-05-10T06:26:14.192Z,216.61
2023-05-10T06:27:14.189Z,217.33
2023-05-10T06:28:14.215Z,217.38
2023-05-10T06:29:14.180Z,219.43
2023-05-10T06:30:14.186Z,223.24
2023-05-10T06:31:14.194Z,223.99
2023-05-10T06:32:14.198Z,225.83
2023-05-10T06:33:14.248Z,226.49
2023-05-10T06:34:14.273Z,224.50
2023-05-10T06:35:14.336Z,229.69
2023-05-10T06:36:14.393Z,230.63
2023-05-10T06:37:14.364Z,228.53
2023-05-10T06:38:14.363Z,228.33
2023-05-10T06:39:14.396Z,224.13
2023-05-10T06:40:14.457Z,212.74
2023-05-10T06:41:14.461Z,198.02
2023-05-10T06:42:14.464Z,183.50
2023-05-10T06:43:14.473Z,186.09
2023-05-10T06:44:14.732Z,188.56
2023-05-10T06:45:14.886Z,195.03
2023-05-10T06:46:14.660Z,197.55
2023-05-10T06:47:14.641Z,199.31
2023-05-10T06:48:14.687Z,201.22
2023-05-10T06:49:14.724Z,203.68
2023-05-10T06:50:14.735Z,204.21
2023-05-10T06:51:14.739Z,210.04
2023-05-10T06:52:14.768Z,211.17
2023-05-10T06:53:14.749Z,211.18
2023-05-10T06:54:14.793Z,215.75
2023-05-10T06:55:14.960Z,212.47
2023-05-10T06:56:14.752Z,217.41
2023-05-10T06:57:27.642Z,218.88
2023-05-10T06:58:15.764Z,219.10
2023-05-10T06:59:14.799Z,220.26
2023-05-10T07:00:14.885Z,222.06
2023-05-10T07:01:14.930Z,225.80
2023-05-10T07:02:14.821Z,230.09
2023-05-10T07:03:14.746Z,230.02
2023-05-10T07:04:14.809Z,228.96
2023-05-10T07:05:14.741Z,229.02
2023-05-10T07:06:29.408Z,229.20
2023-05-10T07:07:15.713Z,229.56
2023-05-10T07:08:14.713Z,230.23
2023-05-10T07:09:14.740Z,232.09
2023-05-10T07:10:14.697Z,235.05
2023-05-10T07:11:14.660Z,235.81
2023-05-10T07:12:15.660Z,236.74
2023-05-10T07:13:14.802Z,236.09
2023-05-10T07:14:14.647Z,236.14
2023-05-10T07:15:14.954Z,234.33
2023-05-10T07:16:14.720Z,235.21
2023-05-10T07:17:14.691Z,233.47
2023-05-10T07:18:14.808Z,233.48
2023-05-10T07:19:15.255Z,236.50
2023-05-10T07:20:14.927Z,236.12
2023-05-10T07:21:15.033Z,238.94
2023-05-10T07:22:15.047Z,236.71
2023-05-10T07:23:15.095Z,236.66
2023-05-10T07:24:15.131Z,235.53
2023-05-10T07:25:15.330Z,235.59
2023-05-10T07:26:15.258Z,237.97
2023-05-10T07:27:15.310Z,236.99
2023-05-10T07:28:15.352Z,237.67
2023-05-10T07:29:15.430Z,241.08
2023-05-10T07:30:15.504Z,241.61
2023-05-10T07:31:15.492Z,241.96
2023-05-10T07:32:15.697Z,245.82
2023-05-10T07:33:15.686Z,246.13
2023-05-10T07:34:15.695Z,239.94
2023-05-10T07:35:15.911Z,241.81
2023-05-10T07:36:16.248Z,245.08
2023-05-10T07:37:15.829Z,245.34
2023-05-10T07:38:15.915Z,246.55
2023-05-10T07:39:21.394Z,249.91
2023-05-10T07:40:16.971Z,250.16
2023-05-10T07:41:16.273Z,251.50
2023-05-10T07:42:15.917Z,253.95
2023-05-10T07:43:15.878Z,259.06
2023-05-10T07:44:15.906Z,267.43
2023-05-10T07:45:16.094Z,250.00
2023-05-10T07:46:15.903Z,248.69
2023-05-10T07:47:15.878Z,249.01
2023-05-10T07:48:15.907Z,242.84
2023-05-10T07:49:15.868Z,243.22
2023-05-10T07:50:15.839Z,245.31
2023-05-10T07:51:15.849Z,245.90
2023-05-10T07:52:16.135Z,245.00
2023-05-10T07:53:15.826Z,244.03
2023-05-10T07:54:15.824Z,243.63
2023-05-10T07:55:16.044Z,242.28
2023-05-10T07:56:15.864Z,243.47
2023-05-10T07:57:15.904Z,244.21
2023-05-10T07:58:15.955Z,242.65
2023-05-10T07:59:15.997Z,247.33
2023-05-10T08:00:16.008Z,245.13
2023-05-10T08:01:16.033Z,245.76
2023-05-10T08:02:16.137Z,241.60
2023-05-10T08:03:16.331Z,243.53
2023-05-10T08:04:16.225Z,244.72
2023-05-10T08:05:16.470Z,243.96
2023-05-10T08:06:16.216Z,243.43
2023-05-10T08:07:16.247Z,245.88
2023-05-10T08:08:16.227Z,246.83
2023-05-10T08:09:16.266Z,242.09
2023-05-10T08:10:16.277Z,243.50
2023-05-10T08:11:16.279Z,246.22
2023-05-10T08:12:16.345Z,246.31
2023-05-10T08:13:16.801Z,239.60
2023-05-10T08:14:16.406Z,214.00
2023-05-10T08:15:16.685Z,196.69
2023-05-10T08:16:16.564Z,184.66
2023-05-10T08:17:17.332Z,180.71
2023-05-10T08:18:16.811Z,179.32
2023-05-10T08:19:16.639Z,176.80
2023-05-10T08:20:16.681Z,172.73
2023-05-10T08:21:16.768Z,160.37
2023-05-10T08:22:16.695Z,154.06
2023-05-10T08:23:16.745Z,146.89
2023-05-10T08:24:16.717Z,154.65
2023-05-10T08:25:16.863Z,153.96
2023-05-10T08:26:16.777Z,146.74
2023-05-10T08:27:16.785Z,142.09
2023-05-10T08:28:16.842Z,146.56
2023-05-10T08:29:16.825Z,157.11
2023-05-10T08:30:16.880Z,158.38
2023-05-10T08:31:16.974Z,161.55
2023-05-10T08:32:16.921Z,151.35
2023-05-10T08:33:16.910Z,143.98
2023-05-10T08:34:16.960Z,141.52
2023-05-10T08:35:17.214Z,141.38
2023-05-10T08:36:17.026Z,139.31
2023-05-10T08:37:17.134Z,143.11
2023-05-10T08:38:17.153Z,135.71
2023-05-10T08:39:29.383Z,136.36
2023-05-10T08:40:18.173Z,136.63
2023-05-10T08:41:17.207Z,136.82
2023-05-10T08:42:17.132Z,140.22
2023-05-10T08:43:17.105Z,145.18
2023-05-10T08:44:17.117Z,161.89
2023-05-10T08:45:17.311Z,164.78
2023-05-10T08:46:17.151Z,167.25
2023-05-10T08:47:17.106Z,170.10
2023-05-10T08:48:17.109Z,172.49
2023-05-10T08:49:17.136Z,171.97
2023-05-10T08:50:17.086Z,174.21
2023-05-10T08:51:17.288Z,173.50
2023-05-10T08:52:17.057Z,174.01
2023-05-10T08:53:17.065Z,171.95
2023-05-10T08:54:17.055Z,172.68
2023-05-10T08:55:17.234Z,173.90
2023-05-10T08:56:17.065Z,173.84
2023-05-10T08:57:17.045Z,172.87
2023-05-10T08:58:17.301Z,170.97
2023-05-10T08:59:17.092Z,166.40
2023-05-10T09:00:17.133Z,164.08
2023-05-10T09:01:17.303Z,164.38
2023-05-10T09:02:18.804Z,164.33
2023-05-10T09:03:17.274Z,162.12
2023-05-10T09:04:17.357Z,163.24
2023-05-10T09:05:17.494Z,160.39
2023-05-10T09:06:17.379Z,160.66
2023-05-10T09:07:17.433Z,158.69
2023-05-10T09:08:17.559Z,153.54
2023-05-10T09:09:17.463Z,155.26
2023-05-10T09:10:17.505Z,157.94
2023-05-10T09:11:17.519Z,154.63
2023-05-10T09:12:17.544Z,156.13
2023-05-10T09:13:17.544Z,158.28
2023-05-10T09:14:17.588Z,163.28
2023-05-10T09:15:17.807Z,167.65
2023-05-10T09:16:21.566Z,167.74
2023-05-10T09:17:17.693Z,166.55
2023-05-10T09:18:17.685Z,167.52
2023-05-10T09:19:17.611Z,167.90
2023-05-10T09:20:17.634Z,167.35
2023-05-10T09:21:17.670Z,165.51
2023-05-10T09:22:17.576Z,161.83
2023-05-10T09:23:17.588Z,162.02
2023-05-10T09:24:17.564Z,158.47
2023-05-10T09:25:17.971Z,161.36
2023-05-10T09:26:17.545Z,163.44
2023-05-10T09:27:17.841Z,160.40
2023-05-10T09:28:17.555Z,153.91
2023-05-10T09:29:17.990Z,151.70
2023-05-10T09:30:17.562Z,147.13
2023-05-10T09:31:17.592Z,149.58
2023-05-10T09:32:17.565Z,154.14
2023-05-10T09:33:17.871Z,154.55
2023-05-10T09:34:17.506Z,152.98
2023-05-10T09:35:17.760Z,148.28
2023-05-10T09:36:17.510Z,147.15
2023-05-10T09:37:17.485Z,154.57
2023-05-10T09:38:17.515Z,158.14
2023-05-10T09:39:17.804Z,160.68
2023-05-10T09:40:18.280Z,168.97
2023-05-10T09:41:17.470Z,169.18
2023-05-10T09:42:17.470Z,174.04
2023-05-10T09:43:17.433Z,172.27
2023-05-10T09:44:17.432Z,179.23
2023-05-10T09:45:17.826Z,180.23
2023-05-10T09:46:17.487Z,181.67
2023-05-10T09:47:17.447Z,182.72
2023-05-10T09:48:17.404Z,185.64
2023-05-10T09:49:17.452Z,190.68
2023-05-10T09:50:17.679Z,191.33
2023-05-10T09:51:17.573Z,194.06
2023-05-10T09:52:17.660Z,190.30
2023-05-10T09:53:17.640Z,194.68
2023-05-10T09:54:17.762Z,197.93
2023-05-10T09:55:18.019Z,196.99
2023-05-10T09:56:17.825Z,197.44
2023-05-10T09:57:18.322Z,192.94
2023-05-10T09:58:17.931Z,195.86
2023-05-10T09:59:18.017Z,197.90
2023-05-10T10:00:18.056Z,188.97
2023-05-10T10:01:18.168Z,186.96
2023-05-10T10:02:18.166Z,183.02
2023-05-10T10:03:18.231Z,186.81
2023-05-10T10:04:18.302Z,197.41
2023-05-10T10:05:18.621Z,196.86
2023-05-10T10:06:29.051Z,196.46
2023-05-10T10:07:19.377Z,196.67
2023-05-10T10:08:18.457Z,196.65
2023-05-10T10:09:18.340Z,196.72
2023-05-10T10:10:18.366Z,195.93
2023-05-10T10:11:18.327Z,195.75
2023-05-10T10:12:18.341Z,193.87
2023-05-10T10:13:18.357Z,195.82
2023-05-10T10:14:19.964Z,187.86
2023-05-10T10:15:18.673Z,190.29
2023-05-10T10:16:18.397Z,193.01
2023-05-10T10:17:18.308Z,195.69
2023-05-10T10:18:18.381Z,197.05
2023-05-10T10:19:18.831Z,197.90
2023-05-10T10:20:18.586Z,198.90
2023-05-10T10:21:18.494Z,199.72
2023-05-10T10:22:18.852Z,198.50
2023-05-10T10:23:18.565Z,193.43
2023-05-10T10:24:18.598Z,195.02
2023-05-10T10:25:18.922Z,197.50
2023-05-10T10:26:18.857Z,195.33
2023-05-10T10:27:18.751Z,200.41
2023-05-10T10:28:18.758Z,199.04
2023-05-10T10:29:18.797Z,202.23
2023-05-10T10:30:18.888Z,207.66
2023-05-10T10:31:18.869Z,211.63
2023-05-10T10:32:18.895Z,212.20
2023-05-10T10:33:27.757Z,212.56
2023-05-10T10:34:19.870Z,212.80
2023-05-10T10:35:19.368Z,212.71
2023-05-10T10:36:18.864Z,203.68
2023-05-10T10:37:18.887Z,203.30
2023-05-10T10:38:18.854Z,203.64
2023-05-10T10:39:18.838Z,215.93
2023-05-10T10:40:18.836Z,230.12
2023-05-10T10:41:18.838Z,233.99
2023-05-10T10:42:18.801Z,233.15
2023-05-10T10:43:18.816Z,233.37
2023-05-10T10:44:18.897Z,227.84
2023-05-10T10:45:18.992Z,234.53
2023-05-10T10:46:19.095Z,241.09
2023-05-10T10:47:18.793Z,241.11
2023-05-10T10:48:18.782Z,241.29
2023-05-10T10:49:18.821Z,236.42
2023-05-10T10:50:18.775Z,237.69
2023-05-10T10:51:18.769Z,240.86
2023-05-10T10:52:18.766Z,234.21
2023-05-10T10:53:18.820Z,235.47
2023-05-10T10:54:18.774Z,238.09
2023-05-10T10:55:18.970Z,237.06
2023-05-10T10:56:18.730Z,242.12
2023-05-10T10:57:18.719Z,245.36
2023-05-10T10:58:18.712Z,241.30
2023-05-10T10:59:18.706Z,236.01
2023-05-10T11:00:18.699Z,235.88
2023-05-10T11:01:18.704Z,237.22
2023-05-10T11:02:18.672Z,244.10
2023-05-10T11:03:18.768Z,237.54
2023-05-10T11:04:18.729Z,236.20
2023-05-10T11:05:18.897Z,240.44
2023-05-10T11:06:18.646Z,229.73
2023-05-10T11:07:18.656Z,233.40
2023-05-10T11:08:18.875Z,237.50
2023-05-10T11:09:18.624Z,241.60
2023-05-10T11:10:18.649Z,233.66
2023-05-10T11:11:18.726Z,227.12
2023-05-10T11:12:18.800Z,218.40
2023-05-10T11:13:18.831Z,218.70
2023-05-10T11:14:18.912Z,218.30
2023-05-10T11:15:19.079Z,217.29
2023-05-10T11:16:19.070Z,216.45
2023-05-10T11:17:19.463Z,219.47
2023-05-10T11:18:19.117Z,218.25
2023-05-10T11:19:19.148Z,215.00
2023-05-10T11:20:19.436Z,205.27
2023-05-10T11:21:19.290Z,203.73
2023-05-10T11:22:19.285Z,199.50
2023-05-10T11:23:19.316Z,197.40
2023-05-10T11:24:19.350Z,189.20
2023-05-10T11:25:19.395Z,188.97
2023-05-10T11:26:19.411Z,183.82
2023-05-10T11:27:19.474Z,178.05
2023-05-10T11:28:19.455Z,172.97
2023-05-10T11:29:19.494Z,169.88
2023-05-10T11:30:19.691Z,160.10
2023-05-10T11:31:19.484Z,160.54
2023-05-10T11:32:19.459Z,158.09
2023-05-10T11:33:19.457Z,150.43
2023-05-10T11:34:19.449Z,142.91
2023-05-10T11:35:19.507Z,141.06
2023-05-10T11:36:19.472Z,141.64
2023-05-10T11:37:19.472Z,139.72
2023-05-10T11:38:19.463Z,137.66
2023-05-10T11:39:19.489Z,133.92
2023-05-10T11:40:19.570Z,134.84
2023-05-10T11:41:19.523Z,132.22
2023-05-10T11:42:19.485Z,128.17
2023-05-10T11:43:19.478Z,128.91
2023-05-10T11:44:19.468Z,123.27
2023-05-10T11:45:19.509Z,123.97
2023-05-10T11:46:19.501Z,114.56
2023-05-10T11:47:19.499Z,107.56
2023-05-10T11:48:19.622Z,103.00
2023-05-10T11:49:19.565Z,95.10
2023-05-10T11:50:19.687Z,93.09
2023-05-10T11:51:19.512Z,90.71
2023-05-10T11:52:19.550Z,89.02
2023-05-10T11:53:19.582Z,82.25
2023-05-10T11:54:19.564Z,80.17
2023-05-10T11:55:19.577Z,81.80
2023-05-10T11:56:19.543Z,90.39
2023-05-10T11:57:19.574Z,89.80
2023-05-10T11:58:19.550Z,87.19
2023-05-10T11:59:19.580Z,89.76
2023-05-10T12:00:19.923Z,86.54
2023-05-10T12:01:19.663Z,85.63
2023-05-10T12:02:19.673Z,87.88
2023-05-10T12:03:19.718Z,88.86
2023-05-10T12:04:19.932Z,91.10
2023-05-10T12:05:19.601Z,89.81
2023-05-10T12:06:19.577Z,96.32
2023-05-10T12:07:19.618Z,99.04
2023-05-10T12:08:19.584Z,103.12
2023-05-10T12:09:31.459Z,103.43
2023-05-10T12:10:21.149Z,103.59
2023-05-10T12:11:19.587Z,104.82
2023-05-10T12:12:19.608Z,106.11
2023-05-10T12:13:19.558Z,108.63
2023-05-10T12:14:19.530Z,117.16
2023-05-10T12:15:19.564Z,123.36
2023-05-10T12:16:19.643Z,126.91
2023-05-10T12:17:19.514Z,130.15
2023-05-10T12:18:19.537Z,131.28
2023-05-10T12:19:19.495Z,132.71
2023-05-10T12:20:19.734Z,138.18
2023-05-10T12:21:19.500Z,140.77
2023-05-10T12:22:19.531Z,142.78
2023-05-10T12:23:19.466Z,145.02
2023-05-10T12:24:19.492Z,146.07
2023-05-10T12:25:19.508Z,149.65
2023-05-10T12:26:19.522Z,151.02
2023-05-10T12:27:19.437Z,152.85
2023-05-10T12:28:19.451Z,158.66
2023-05-10T12:29:19.507Z,159.11